Time;durP1;ratioP1;P1;durP2;ratioP2;P2;SDS_P1;SDS_P2;PMS_P1;PMS_P2;Temp;Humidity;BMP_temperature;BMP_pressure;BME280_temperature;BME280_humidity;BME280_pressure;Samples;Min_cycle;Max_cycle;Signal;HPM_P1;HPM_P2
2022/08/28 00:02:17;;;;;;;15.15;6.25;;;;;;;;;;1716384;83;21017;-66
2022/08/28 00:04:43;;;;;;;13.75;5.75;;;;;;;;;;1715220;83;21088;-66
2022/08/28 00:07:10;;;;;;;16.95;5.70;;;;;;;;;;1720771;83;21575;-67
2022/08/28 00:09:37;;;;;;;13.48;6.50;;;;;;;;;;1719142;83;21112;-67
2022/08/28 00:12:04;;;;;;;14.43;5.75;;;;;;;;;;1708777;83;21037;-67
2022/08/28 00:14:30;;;;;;;16.87;4.90;;;;;;;;;;1717551;83;21005;-66
2022/08/28 00:16:57;;;;;;;12.65;4.65;;;;;;;;;;1715480;83;21068;-66
2022/08/28 00:19:23;;;;;;;18.60;4.47;;;;;;;;;;1710528;83;21081;-65
2022/08/28 00:21:49;;;;;;;14.73;4.12;;;;;;;;;;1713336;83;21064;-66
2022/08/28 00:24:16;;;;;;;20.60;4.78;;;;;;;;;;1715020;83;21092;-66
2022/08/28 00:29:26;;;;;;;17.20;5.37;;;;;;;;;;1711151;83;21052;-66
2022/08/28 00:31:52;;;;;;;14.05;4.33;;;;;;;;;;1716133;83;21100;-66
2022/08/28 00:34:19;;;;;;;17.98;5.78;;;;;;;;;;1715974;83;21072;-66
2022/08/28 00:36:45;;;;;;;19.20;5.30;;;;;;;;;;1712153;83;21048;-67
2022/08/28 00:39:11;;;;;;;15.70;5.15;;;;;;;;;;1712161;84;21080;-67
2022/08/28 00:41:38;;;;;;;14.85;4.87;;;;;;;;;;1715617;83;21552;-66
2022/08/28 00:44:13;;;;;;;15.13;4.50;;;;;;;;;;1712072;83;21025;-66
2022/08/28 00:46:40;;;;;;;17.00;5.10;;;;;;;;;;1712612;83;21513;-66
2022/08/28 00:49:07;;;;;;;16.07;4.85;;;;;;;;;;1722739;83;21057;-67
2022/08/28 00:54:18;;;;;;;16.60;4.95;;;;;;;;;;1709059;83;21088;-66
2022/08/28 00:56:46;;;;;;;14.05;4.67;;;;;;;;;;1713675;83;21128;-67
2022/08/28 00:59:14;;;;;;;14.83;4.92;;;;;;;;;;1723216;82;20997;-66
2022/08/28 01:04:23;;;;;;;15.08;4.65;;;;;;;;;;1710008;79;21663;-66
2022/08/28 01:06:52;;;;;;;14.45;5.15;;;;;;;;;;1682669;83;22228;-66
2022/08/28 01:09:19;;;;;;;14.05;4.75;;;;;;;;;;1690252;84;21092;-66
2022/08/28 01:11:46;;;;;;;11.70;4.75;;;;;;;;;;1677151;84;21088;-66
2022/08/28 01:14:13;;;;;;;17.07;4.90;;;;;;;;;;1679640;83;21068;-65
2022/08/28 01:16:39;;;;;;;13.48;5.20;;;;;;;;;;1692732;85;21084;-65
2022/08/28 01:19:06;;;;;;;10.40;3.95;;;;;;;;;;1700456;83;21112;-66
2022/08/28 01:21:41;;;;;;;14.83;4.75;;;;;;;;;;1720330;83;21066;-65
2022/08/28 01:24:10;;;;;;;19.95;4.95;;;;;;;;;;1719443;83;21123;-65
2022/08/28 01:26:38;;;;;;;15.65;4.42;;;;;;;;;;1719936;83;21061;-65
2022/08/28 01:29:06;;;;;;;17.80;4.53;;;;;;;;;;1719723;83;21049;-65
2022/08/28 01:31:32;;;;;;;15.68;5.45;;;;;;;;;;1720245;83;21087;-65
2022/08/28 01:33:59;;;;;;;12.85;4.85;;;;;;;;;;1719838;83;21584;-65
2022/08/28 01:36:25;;;;;;;13.45;5.08;;;;;;;;;;1711329;83;21012;-65
2022/08/28 01:38:52;;;;;;;11.90;4.83;;;;;;;;;;1697136;83;21099;-66
2022/08/28 01:41:19;;;;;;;16.35;4.67;;;;;;;;;;1698495;83;21065;-66
2022/08/28 01:43:46;;;;;;;14.33;4.00;;;;;;;;;;1710198;83;21159;-66
2022/08/28 01:46:12;;;;;;;17.27;4.92;;;;;;;;;;1706428;83;21580;-66
2022/08/28 01:48:40;;;;;;;12.60;4.30;;;;;;;;;;1719149;83;21072;-66
2022/08/28 01:51:07;;;;;;;14.25;4.30;;;;;;;;;;1719999;83;21584;-66
2022/08/28 01:53:33;;;;;;;14.43;4.10;;;;;;;;;;1708635;83;21072;-66
2022/08/28 01:56:00;;;;;;;12.53;3.92;;;;;;;;;;1719409;83;21604;-66
2022/08/28 01:58:27;;;;;;;11.83;4.15;;;;;;;;;;1720227;83;21037;-67
2022/08/28 02:00:53;;;;;;;13.10;3.98;;;;;;;;;;1717640;83;21093;-66
2022/08/28 02:03:22;;;;;;;11.40;4.37;;;;;;;;;;1701512;83;21104;-66
2022/08/28 02:05:48;;;;;;;13.13;4.40;;;;;;;;;;1700815;83;21059;-66
2022/08/28 02:08:14;;;;;;;13.48;4.25;;;;;;;;;;1700764;83;21002;-66
2022/08/28 02:10:42;;;;;;;10.95;3.95;;;;;;;;;;1701368;83;21103;-66
2022/08/28 02:14:09;;;;;;;15.78;4.83;;;;;;;;;;1813153;78;23845;-64
2022/08/28 02:16:36;;;;;;;12.23;4.25;;;;;;;;;;1784880;80;21025;-67
2022/08/28 02:19:02;;;;;;;15.53;4.87;;;;;;;;;;1791128;80;21001;-66
2022/08/28 02:21:28;;;;;;;17.42;5.00;;;;;;;;;;1792966;80;21031;-65
2022/08/28 02:23:54;;;;;;;14.38;4.70;;;;;;;;;;1790835;80;21016;-66
2022/08/28 02:26:20;;;;;;;18.48;4.87;;;;;;;;;;1777501;80;22107;-66
2022/08/28 02:28:47;;;;;;;15.48;4.67;;;;;;;;;;1790831;80;20996;-66
2022/08/28 02:31:14;;;;;;;13.93;4.92;;;;;;;;;;1791165;80;21598;-65
2022/08/28 02:33:42;;;;;;;14.55;4.60;;;;;;;;;;1793827;80;21146;-65
2022/08/28 02:36:09;;;;;;;15.50;4.05;;;;;;;;;;1792184;80;21001;-65
2022/08/28 02:38:36;;;;;;;14.43;4.55;;;;;;;;;;1785197;80;21078;-66
2022/08/28 02:41:03;;;;;;;10.78;4.40;;;;;;;;;;1777081;80;21539;-65
2022/08/28 02:43:29;;;;;;;12.13;4.37;;;;;;;;;;1768951;80;21023;-66
2022/08/28 02:45:56;;;;;;;19.25;4.53;;;;;;;;;;1780938;80;21027;-66
2022/08/28 02:48:22;;;;;;;9.70;4.12;;;;;;;;;;1777341;80;21044;-66
2022/08/28 02:50:49;;;;;;;11.68;5.17;;;;;;;;;;1785377;80;21088;-65
2022/08/28 02:53:16;;;;;;;14.40;4.47;;;;;;;;;;1784345;79;21131;-66
2022/08/28 02:55:44;;;;;;;11.95;4.50;;;;;;;;;;1788255;80;21091;-66
2022/08/28 02:58:10;;;;;;;12.63;4.67;;;;;;;;;;1787943;80;21016;-66
2022/08/28 03:00:37;;;;;;;13.10;4.85;;;;;;;;;;1767454;80;21106;-66
2022/08/28 03:03:04;;;;;;;16.23;4.55;;;;;;;;;;1781084;79;21069;-65
2022/08/28 03:05:30;;;;;;;11.00;4.33;;;;;;;;;;1764788;80;21103;-66
2022/08/28 03:07:57;;;;;;;18.80;5.40;;;;;;;;;;1778169;80;21087;-66
2022/08/28 03:10:23;;;;;;;13.58;4.70;;;;;;;;;;1785552;80;21044;-66
2022/08/28 03:12:50;;;;;;;13.18;5.05;;;;;;;;;;1767299;79;21563;-66
2022/08/28 03:15:17;;;;;;;12.13;4.60;;;;;;;;;;1769413;79;21158;-65
2022/08/28 03:17:43;;;;;;;18.45;4.80;;;;;;;;;;1775544;81;21037;-66
2022/08/28 03:20:10;;;;;;;11.55;4.95;;;;;;;;;;1765468;81;21108;-66
2022/08/28 03:25:21;;;;;;;13.20;4.78;;;;;;;;;;1722696;82;21118;-66
2022/08/28 03:27:47;;;;;;;11.03;5.00;;;;;;;;;;1706808;83;21064;-67
2022/08/28 03:30:14;;;;;;;14.43;5.28;;;;;;;;;;1706422;83;21021;-66
2022/08/28 03:32:40;;;;;;;17.80;5.15;;;;;;;;;;1688364;83;21041;-67
2022/08/28 03:35:07;;;;;;;14.63;5.42;;;;;;;;;;1696183;83;21543;-66
2022/08/28 03:37:33;;;;;;;9.48;4.42;;;;;;;;;;1693883;83;21596;-66
2022/08/28 03:39:59;;;;;;;13.78;5.15;;;;;;;;;;1710837;83;21056;-66
2022/08/28 03:42:25;;;;;;;20.02;5.50;;;;;;;;;;1773630;81;21120;-66
2022/08/28 03:44:52;;;;;;;13.20;5.30;;;;;;;;;;1763118;79;21064;-66
2022/08/28 03:47:18;;;;;;;12.15;5.62;;;;;;;;;;1760049;81;21061;-66
2022/08/28 03:49:45;;;;;;;16.02;5.53;;;;;;;;;;1757762;81;21117;-66
2022/08/28 03:52:12;;;;;;;11.93;5.70;;;;;;;;;;1759322;81;21068;-65
2022/08/28 03:54:38;;;;;;;14.87;5.83;;;;;;;;;;1754682;79;21037;-65
2022/08/28 03:57:04;;;;;;;18.07;5.90;;;;;;;;;;1750565;81;21060;-66
2022/08/28 03:59:30;;;;;;;14.20;6.33;;;;;;;;;;1762312;81;21052;-66
2022/08/28 04:01:56;;;;;;;18.02;6.33;;;;;;;;;;1765227;81;21025;-65
2022/08/28 04:04:22;;;;;;;14.07;5.87;;;;;;;;;;1772687;81;21591;-66
2022/08/28 04:06:48;;;;;;;12.68;5.80;;;;;;;;;;1759143;81;21029;-66
2022/08/28 04:09:14;;;;;;;10.08;5.05;;;;;;;;;;1764320;81;21061;-66
2022/08/28 04:11:41;;;;;;;11.33;5.33;;;;;;;;;;1758296;81;21035;-66
2022/08/28 04:14:11;;;;;;;14.55;5.78;;;;;;;;;;1769604;79;21497;-66
2022/08/28 04:16:38;;;;;;;15.40;5.85;;;;;;;;;;1738931;82;21051;-66
2022/08/28 04:19:04;;;;;;;15.05;6.80;;;;;;;;;;1769319;81;21053;-66
2022/08/28 04:21:30;;;;;;;14.23;6.17;;;;;;;;;;1761257;81;21033;-65
2022/08/28 04:23:56;;;;;;;13.72;6.25;;;;;;;;;;1764433;81;21026;-66
2022/08/28 04:26:24;;;;;;;14.55;6.83;;;;;;;;;;1766190;81;21533;-65
2022/08/28 04:28:51;;;;;;;18.25;6.70;;;;;;;;;;1731357;82;21077;-65
2022/08/28 04:31:17;;;;;;;19.17;7.70;;;;;;;;;;1768270;81;21005;-66
2022/08/28 04:33:44;;;;;;;19.05;7.28;;;;;;;;;;1773291;79;21044;-65
2022/08/28 04:36:12;;;;;;;15.32;6.97;;;;;;;;;;1774593;80;21604;-65
2022/08/28 04:38:38;;;;;;;17.30;7.47;;;;;;;;;;1768392;81;21049;-66
2022/08/28 04:41:05;;;;;;;16.97;7.50;;;;;;;;;;1740886;82;21019;-64
2022/08/28 04:43:31;;;;;;;14.80;7.50;;;;;;;;;;1706241;82;21034;-64
2022/08/28 04:45:57;;;;;;;18.55;8.10;;;;;;;;;;1767295;81;21100;-65
2022/08/28 04:48:23;;;;;;;13.78;7.00;;;;;;;;;;1731478;82;21122;-66
2022/08/28 04:50:49;;;;;;;15.40;7.60;;;;;;;;;;1775845;81;21551;-65
2022/08/28 04:53:16;;;;;;;17.20;7.95;;;;;;;;;;1765798;79;20996;-65
2022/08/28 04:55:46;;;;;;;15.90;6.70;;;;;;;;;;1760949;81;21020;-66
2022/08/28 04:58:12;;;;;;;18.02;5.67;;;;;;;;;;1758325;81;22026;-65
2022/08/28 05:00:39;;;;;;;20.82;6.83;;;;;;;;;;1765565;79;21021;-65
2022/08/28 05:03:06;;;;;;;13.25;6.22;;;;;;;;;;1763071;81;21118;-66
2022/08/28 05:05:33;;;;;;;14.28;5.55;;;;;;;;;;1767769;81;21676;-65
2022/08/28 05:07:59;;;;;;;13.08;5.47;;;;;;;;;;1760972;81;21106;-65
2022/08/28 05:10:25;;;;;;;16.40;6.30;;;;;;;;;;1766091;79;21053;-65
2022/08/28 05:12:51;;;;;;;12.78;5.58;;;;;;;;;;1760867;81;21072;-65
2022/08/28 05:15:18;;;;;;;13.68;6.20;;;;;;;;;;1772038;81;21069;-66
2022/08/28 05:17:50;;;;;;;18.70;6.85;;;;;;;;;;1760091;81;20989;-63
2022/08/28 05:20:17;;;;;;;13.60;6.08;;;;;;;;;;1760768;79;21076;-65
2022/08/28 05:22:43;;;;;;;14.68;5.65;;;;;;;;;;1762020;81;21040;-64
2022/08/28 05:25:09;;;;;;;19.85;6.20;;;;;;;;;;1762612;81;21037;-65
2022/08/28 05:27:37;;;;;;;15.08;5.50;;;;;;;;;;1758505;81;21032;-65
2022/08/28 05:30:04;;;;;;;18.32;5.92;;;;;;;;;;1763182;81;21056;-65
2022/08/28 05:32:30;;;;;;;16.02;6.00;;;;;;;;;;1723959;82;21514;-66
2022/08/28 05:34:56;;;;;;;16.50;5.70;;;;;;;;;;1694640;84;21011;-66
2022/08/28 05:37:22;;;;;;;13.40;6.22;;;;;;;;;;1764207;81;21048;-65
2022/08/28 05:39:48;;;;;;;14.47;6.00;;;;;;;;;;1758098;81;21056;-65
2022/08/28 05:42:14;;;;;;;16.37;5.83;;;;;;;;;;1775422;80;21564;-64
2022/08/28 05:44:40;;;;;;;15.85;6.45;;;;;;;;;;1763782;81;21103;-65
2022/08/28 05:47:06;;;;;;;16.10;6.28;;;;;;;;;;1763833;81;21029;-65
2022/08/28 05:49:32;;;;;;;16.48;6.75;;;;;;;;;;1778098;81;21041;-66
2022/08/28 05:51:58;;;;;;;14.78;5.78;;;;;;;;;;1766116;80;21017;-66
2022/08/28 05:54:25;;;;;;;16.73;6.12;;;;;;;;;;1770767;80;21025;-66
2022/08/28 05:56:51;;;;;;;15.25;6.33;;;;;;;;;;1736512;81;21085;-66
2022/08/28 05:59:18;;;;;;;15.90;6.30;;;;;;;;;;1734105;81;21112;-65
2022/08/28 06:01:45;;;;;;;19.10;6.10;;;;;;;;;;1756767;80;21066;-66
2022/08/28 06:04:13;;;;;;;11.05;5.37;;;;;;;;;;1774130;81;21099;-66
2022/08/28 06:06:40;;;;;;;20.75;6.22;;;;;;;;;;1763108;81;21025;-65
2022/08/28 06:09:10;;;;;;;21.73;6.67;;;;;;;;;;1770022;80;20987;-64
2022/08/28 06:11:40;;;;;;;18.10;5.92;;;;;;;;;;1735170;82;21001;-66
2022/08/28 06:14:11;;;;;;;17.10;6.47;;;;;;;;;;1770970;80;21052;-66
2022/08/28 06:16:37;;;;;;;17.77;6.70;;;;;;;;;;1756795;80;21028;-66
2022/08/28 06:19:04;;;;;;;18.05;5.80;;;;;;;;;;1783082;80;21536;-64
2022/08/28 06:21:32;;;;;;;20.10;6.40;;;;;;;;;;1771637;80;21099;-64
2022/08/28 06:23:59;;;;;;;21.40;6.50;;;;;;;;;;1772219;80;21048;-65
2022/08/28 06:26:25;;;;;;;16.95;6.55;;;;;;;;;;1772308;80;22282;-66
2022/08/28 06:28:52;;;;;;;20.17;6.33;;;;;;;;;;1762403;80;21029;-64
2022/08/28 06:31:18;;;;;;;18.00;6.95;;;;;;;;;;1769600;80;21036;-64
2022/08/28 06:33:45;;;;;;;21.73;7.05;;;;;;;;;;1771714;79;21068;-66
2022/08/28 06:36:11;;;;;;;19.27;6.37;;;;;;;;;;1774596;79;21004;-65
2022/08/28 06:38:37;;;;;;;21.20;6.67;;;;;;;;;;1772708;80;21114;-68
2022/08/28 06:41:06;;;;;;;15.95;6.22;;;;;;;;;;1770290;79;21546;-65
2022/08/28 06:43:32;;;;;;;19.77;7.00;;;;;;;;;;1774030;80;21074;-66
2022/08/28 06:45:58;;;;;;;16.95;6.47;;;;;;;;;;1777402;79;22182;-65
2022/08/28 06:48:26;;;;;;;21.05;6.55;;;;;;;;;;1781447;79;21493;-65
2022/08/28 06:50:52;;;;;;;25.23;6.55;;;;;;;;;;1782019;79;20973;-65
2022/08/28 06:53:18;;;;;;;19.02;5.95;;;;;;;;;;1779638;80;20977;-65
2022/08/28 06:55:47;;;;;;;25.23;5.90;;;;;;;;;;1773242;80;21484;-65
2022/08/28 06:58:13;;;;;;;19.05;6.45;;;;;;;;;;1775622;80;20981;-66
2022/08/28 07:00:39;;;;;;;15.45;6.55;;;;;;;;;;1775599;79;21035;-65
2022/08/28 07:03:05;;;;;;;19.82;6.40;;;;;;;;;;1773104;80;20945;-66
2022/08/28 07:05:32;;;;;;;14.05;5.80;;;;;;;;;;1767996;80;21039;-65
2022/08/28 07:07:58;;;;;;;14.65;5.78;;;;;;;;;;1776061;80;20945;-66
2022/08/28 07:10:26;;;;;;;13.93;5.30;;;;;;;;;;1779308;80;20989;-66
2022/08/28 07:12:54;;;;;;;17.50;6.12;;;;;;;;;;1773890;79;20977;-65
2022/08/28 07:15:20;;;;;;;13.93;5.53;;;;;;;;;;1773181;80;21005;-66
2022/08/28 07:17:46;;;;;;;19.67;5.95;;;;;;;;;;1772622;79;21009;-66
2022/08/28 07:20:12;;;;;;;16.07;6.22;;;;;;;;;;1770859;81;21037;-65
2022/08/28 07:22:43;;;;;;;17.00;5.97;;;;;;;;;;1769286;79;21555;-65
2022/08/28 07:25:08;;;;;;;18.67;6.80;;;;;;;;;;1765900;81;21056;-66
2022/08/28 07:27:34;;;;;;;18.32;6.40;;;;;;;;;;1762668;80;21485;-66
2022/08/28 07:30:01;;;;;;;14.35;5.83;;;;;;;;;;1757583;79;21049;-65
2022/08/28 07:32:28;;;;;;;14.55;6.40;;;;;;;;;;1765871;79;21097;-65
2022/08/28 07:34:55;;;;;;;20.77;6.30;;;;;;;;;;1764536;81;21117;-64
2022/08/28 07:37:22;;;;;;;22.82;6.20;;;;;;;;;;1766973;79;21076;-66
2022/08/28 07:39:48;;;;;;;20.02;7.03;;;;;;;;;;1770284;80;20998;-65
2022/08/28 07:44:48;;;;;;;18.27;6.58;;;;;;;;;;1771179;80;21029;-65
2022/08/28 07:44:48;;;;;;;17.65;6.17;;;;;;;;;;1760841;81;21037;-66
2022/08/28 07:47:14;;;;;;;36.45;22.77;;;;;;;;;;1762380;81;21587;-66
2022/08/28 07:49:41;;;;;;;18.27;7.95;;;;;;;;;;1753626;81;21085;-66
2022/08/28 07:52:07;;;;;;;17.92;6.53;;;;;;;;;;1772215;80;21013;-66
2022/08/28 07:54:34;;;;;;;23.45;7.00;;;;;;;;;;1766894;79;21500;-65
2022/08/28 07:57:01;;;;;;;23.35;7.00;;;;;;;;;;1771274;79;21107;-65
2022/08/28 07:59:28;;;;;;;24.23;6.92;;;;;;;;;;1772331;79;21020;-66
2022/08/28 08:01:54;;;;;;;21.25;6.65;;;;;;;;;;1772565;79;21114;-65
2022/08/28 08:04:22;;;;;;;26.82;6.60;;;;;;;;;;1764998;79;21005;-66
2022/08/28 08:06:48;;;;;;;18.98;5.80;;;;;;;;;;1761428;81;21028;-65
2022/08/28 08:09:15;;;;;;;24.80;7.00;;;;;;;;;;1770871;80;21073;-66
2022/08/28 08:11:43;;;;;;;26.70;6.75;;;;;;;;;;1762746;81;21042;-65
2022/08/28 08:14:09;;;;;;;23.42;7.05;;;;;;;;;;1775075;80;21101;-66
2022/08/28 08:16:37;;;;;;;27.65;6.55;;;;;;;;;;1720181;82;21116;-66
2022/08/28 08:19:03;;;;;;;26.20;6.33;;;;;;;;;;1754881;81;21056;-65
2022/08/28 08:21:31;;;;;;;27.95;6.22;;;;;;;;;;1766776;80;21001;-65
2022/08/28 08:23:57;;;;;;;26.57;7.53;;;;;;;;;;1773935;80;21052;-66
2022/08/28 08:26:24;;;;;;;25.88;6.60;;;;;;;;;;1746359;81;21081;-66
2022/08/28 08:28:51;;;;;;;21.37;6.05;;;;;;;;;;1740486;81;21069;-65
2022/08/28 08:31:18;;;;;;;20.20;5.97;;;;;;;;;;1756379;81;21142;-65
2022/08/28 08:33:47;;;;;;;22.95;6.12;;;;;;;;;;1760443;81;21257;-65
2022/08/28 08:36:14;;;;;;;21.55;6.70;;;;;;;;;;1747538;82;21033;-65
2022/08/28 08:38:40;;;;;;;28.07;6.35;;;;;;;;;;1757406;81;22307;-65
2022/08/28 08:41:26;;;;;;;20.52;7.22;;;;;;;;;;1773416;81;21120;-65
2022/08/28 08:44:03;;;;;;;24.10;7.03;;;;;;;;;;1766047;81;21013;-64
2022/08/28 08:46:31;;;;;;;24.45;6.45;;;;;;;;;;1772830;81;21087;-65
2022/08/28 08:49:02;;;;;;;20.90;6.62;;;;;;;;;;1740895;82;21054;-65
2022/08/28 08:51:30;;;;;;;17.85;5.58;;;;;;;;;;1774308;80;21058;-64
2022/08/28 08:53:58;;;;;;;17.42;5.97;;;;;;;;;;1769946;79;20985;-64
2022/08/28 08:56:24;;;;;;;25.52;5.75;;;;;;;;;;1773082;80;21010;-65
2022/08/28 08:58:51;;;;;;;10.85;4.95;;;;;;;;;;1754738;81;21075;-64
2022/08/28 09:01:28;;;;;;;14.95;5.72;;;;;;;;;;1753916;81;21096;-64
2022/08/28 09:03:57;;;;;;;23.90;6.03;;;;;;;;;;1760797;79;21583;-66
2022/08/28 09:06:25;;;;;;;15.40;5.37;;;;;;;;;;1769527;79;21056;-65
2022/08/28 09:08:54;;;;;;;19.87;5.47;;;;;;;;;;1774906;81;21512;-65
2022/08/28 09:11:22;;;;;;;21.50;5.78;;;;;;;;;;1752850;79;21089;-63
2022/08/28 09:14:00;;;;;;;38.48;24.18;;;;;;;;;;1767533;79;21105;-64
2022/08/28 09:16:28;;;;;;;37.05;21.07;;;;;;;;;;1766244;79;22241;-64
2022/08/28 09:18:55;;;;;;;19.70;6.50;;;;;;;;;;1763514;79;21033;-66
2022/08/28 09:21:26;;;;;;;16.05;5.80;;;;;;;;;;1697447;83;21358;-65
2022/08/28 09:23:53;;;;;;;17.62;5.90;;;;;;;;;;1763107;79;21082;-65
2022/08/28 09:26:22;;;;;;;15.45;5.12;;;;;;;;;;1782026;79;21049;-67
2022/08/28 09:28:50;;;;;;;20.00;5.60;;;;;;;;;;1784144;79;21040;-65
2022/08/28 09:31:18;;;;;;;16.55;5.17;;;;;;;;;;1754634;79;21052;-65
2022/08/28 09:33:46;;;;;;;15.35;5.75;;;;;;;;;;1762497;80;21563;-66
2022/08/28 09:36:24;;;;;;;16.52;9.40;;;;;;;;;;1777964;80;21080;-63
2022/08/28 09:38:55;;;;;;;38.90;24.47;;;;;;;;;;1770976;81;21107;-64
2022/08/28 09:44:06;;;;;;;15.43;5.87;;;;;;;;;;1748308;81;21064;-64
2022/08/28 09:46:33;;;;;;;15.35;5.65;;;;;;;;;;1770338;81;21127;-63
2022/08/28 09:49:06;;;;;;;14.73;5.45;;;;;;;;;;1767793;81;21639;-64
2022/08/28 09:51:37;;;;;;;15.23;6.37;;;;;;;;;;1755146;81;21001;-64
2022/08/28 09:54:19;;;;;;;16.30;6.87;;;;;;;;;;1755356;79;21019;-65
2022/08/28 09:56:46;;;;;;;17.67;6.47;;;;;;;;;;1752775;79;21084;-65
2022/08/28 09:59:13;;;;;;;14.35;5.83;;;;;;;;;;1753898;81;21017;-65
2022/08/28 10:01:44;;;;;;;18.05;5.40;;;;;;;;;;1764089;81;22048;-65
2022/08/28 10:04:15;;;;;;;18.52;6.15;;;;;;;;;;1757398;81;21032;-64
2022/08/28 10:06:43;;;;;;;17.87;7.30;;;;;;;;;;1752997;79;21625;-65
2022/08/28 10:09:17;;;;;;;15.98;5.15;;;;;;;;;;1766574;80;21100;-66
2022/08/28 10:11:45;;;;;;;14.68;5.40;;;;;;;;;;1735693;81;21082;-65
2022/08/28 10:14:13;;;;;;;17.48;5.12;;;;;;;;;;1766567;80;21588;-63
2022/08/28 10:16:42;;;;;;;11.65;5.00;;;;;;;;;;1778489;79;21029;-62
2022/08/28 10:19:10;;;;;;;13.38;4.83;;;;;;;;;;1776993;80;21025;-62
2022/08/28 10:21:38;;;;;;;12.73;4.75;;;;;;;;;;1771143;79;20990;-63
2022/08/28 10:24:15;;;;;;;12.25;4.83;;;;;;;;;;1778624;79;21710;-64
2022/08/28 10:27:00;;;;;;;10.00;4.40;;;;;;;;;;1786195;79;21042;-65
2022/08/28 10:29:47;;;;;;;10.60;4.17;;;;;;;;;;1786271;79;21033;-65
2022/08/28 10:32:18;;;;;;;7.80;4.30;;;;;;;;;;1774371;79;21060;-65
2022/08/28 10:34:46;;;;;;;11.12;5.00;;;;;;;;;;1769220;80;21540;-64
2022/08/28 10:37:23;;;;;;;15.20;5.58;;;;;;;;;;1760066;80;20989;-65
2022/08/28 10:39:57;;;;;;;9.85;5.10;;;;;;;;;;1777479;79;21516;-65
2022/08/28 10:42:30;;;;;;;7.85;4.83;;;;;;;;;;1773734;79;21043;-64
2022/08/28 10:44:59;;;;;;;50.23;34.15;;;;;;;;;;1776781;79;21079;-63
2022/08/28 10:47:25;;;;;;;19.62;9.65;;;;;;;;;;1764757;79;20987;-63
2022/08/28 10:49:52;;;;;;;11.95;5.30;;;;;;;;;;1779520;79;21068;-62
2022/08/28 10:52:37;;;;;;;8.73;4.75;;;;;;;;;;1771113;79;20997;-62
2022/08/28 10:55:15;;;;;;;10.90;4.90;;;;;;;;;;1769842;79;21015;-60
2022/08/28 10:57:50;;;;;;;10.60;4.60;;;;;;;;;;1776332;79;21013;-62
2022/08/28 11:00:18;;;;;;;11.12;5.33;;;;;;;;;;1773525;79;21547;-63
2022/08/28 11:02:45;;;;;;;12.28;5.67;;;;;;;;;;1776498;80;21009;-61
2022/08/28 11:05:11;;;;;;;12.35;4.97;;;;;;;;;;1774744;79;21017;-62
2022/08/28 11:07:39;;;;;;;9.88;5.08;;;;;;;;;;1763403;79;21095;-64
2022/08/28 11:10:24;;;;;;;10.93;5.58;;;;;;;;;;1776299;79;22199;-63
2022/08/28 11:12:50;;;;;;;15.05;5.17;;;;;;;;;;1777000;80;21520;-65
2022/08/28 11:15:30;;;;;;;13.50;5.12;;;;;;;;;;1776482;79;21075;-64
2022/08/28 11:17:58;;;;;;;8.10;5.35;;;;;;;;;;1752911;81;21087;-64
2022/08/28 11:20:25;;;;;;;12.30;4.87;;;;;;;;;;1777041;79;21049;-64
2022/08/28 11:22:53;;;;;;;10.85;5.10;;;;;;;;;;1781748;79;21089;-63
2022/08/28 11:25:20;;;;;;;15.28;5.50;;;;;;;;;;1782203;80;21516;-64
2022/08/28 11:28:06;;;;;;;9.90;4.80;;;;;;;;;;1780958;80;21579;-64
2022/08/28 11:30:33;;;;;;;10.65;5.97;;;;;;;;;;1783929;80;21091;-65
2022/08/28 11:33:01;;;;;;;10.82;5.12;;;;;;;;;;1773591;80;21068;-64
2022/08/28 11:35:44;;;;;;;36.53;23.35;;;;;;;;;;1775541;80;21026;-65
2022/08/28 11:38:11;;;;;;;10.80;6.10;;;;;;;;;;1761750;80;21103;-65
2022/08/28 11:40:39;;;;;;;12.05;5.33;;;;;;;;;;1776216;80;21056;-65
2022/08/28 11:43:14;;;;;;;13.45;5.60;;;;;;;;;;1777813;80;21048;-65
2022/08/28 11:45:45;;;;;;;25.70;12.20;;;;;;;;;;1777608;80;21039;-64
2022/08/28 11:48:25;;;;;;;14.63;7.87;;;;;;;;;;1777284;79;21063;-64
2022/08/28 11:51:01;;;;;;;31.70;15.53;;;;;;;;;;1764770;79;21079;-64
2022/08/28 11:53:46;;;;;;;15.72;8.93;;;;;;;;;;1777401;79;21052;-62
2022/08/28 11:56:14;;;;;;;15.83;7.70;;;;;;;;;;1777341;80;21595;-63
2022/08/28 11:58:45;;;;;;;15.98;8.25;;;;;;;;;;1776256;79;21076;-63
2022/08/28 12:01:11;;;;;;;15.63;9.63;;;;;;;;;;1762060;80;21087;-63
2022/08/28 12:03:43;;;;;;;15.13;9.40;;;;;;;;;;1766022;80;21074;-63
2022/08/28 12:06:10;;;;;;;21.95;9.83;;;;;;;;;;1769103;80;21045;-63
2022/08/28 12:08:50;;;;;;;16.37;9.40;;;;;;;;;;1763933;80;21072;-64
2022/08/28 12:11:21;;;;;;;15.63;9.20;;;;;;;;;;1773237;80;21088;-64
2022/08/28 12:13:50;;;;;;;17.70;8.30;;;;;;;;;;1761604;80;21092;-62
2022/08/28 12:16:17;;;;;;;17.55;8.05;;;;;;;;;;1783721;80;21512;-63
2022/08/28 12:18:48;;;;;;;13.93;9.38;;;;;;;;;;1779169;80;20954;-63
2022/08/28 12:21:16;;;;;;;17.45;9.05;;;;;;;;;;1768532;80;21072;-66
2022/08/28 12:23:43;;;;;;;17.27;9.45;;;;;;;;;;1774702;79;21000;-64
2022/08/28 12:26:23;;;;;;;18.25;10.58;;;;;;;;;;1770319;79;21016;-64
2022/08/28 12:28:57;;;;;;;19.23;9.78;;;;;;;;;;1775584;79;21519;-63
2022/08/28 12:32:10;;;;;;;17.50;10.50;;;;;;;;;;1785330;79;21059;-64
2022/08/28 12:33:55;;;;;;;19.50;11.12;;;;;;;;;;1766882;79;21047;-71
2022/08/28 12:36:25;;;;;;;19.12;11.38;;;;;;;;;;1769156;79;21088;-70
2022/08/28 12:38:50;;;;;;;24.70;12.47;;;;;;;;;;1766698;80;21009;-68
2022/08/28 12:41:16;;;;;;;20.55;12.78;;;;;;;;;;1769608;80;21608;-67
2022/08/28 12:43:43;;;;;;;20.35;11.80;;;;;;;;;;1770828;80;21073;-70
2022/08/28 12:46:10;;;;;;;27.75;18.42;;;;;;;;;;1772253;80;21101;-70
2022/08/28 12:48:45;;;;;;;28.32;20.30;;;;;;;;;;1765936;80;21433;-70
2022/08/28 12:51:12;;;;;;;21.65;13.28;;;;;;;;;;1768954;80;21628;-71
2022/08/28 12:53:42;;;;;;;19.55;12.18;;;;;;;;;;1768679;80;21037;-70
2022/08/28 12:56:09;;;;;;;21.25;13.40;;;;;;;;;;1729665;82;21019;-69
2022/08/28 12:58:36;;;;;;;22.50;13.38;;;;;;;;;;1769877;80;21100;-70
2022/08/28 13:01:04;;;;;;;19.20;12.95;;;;;;;;;;1781447;80;21057;-70
2022/08/28 13:03:31;;;;;;;19.50;12.18;;;;;;;;;;1781800;80;21591;-70
2022/08/28 13:06:02;;;;;;;23.57;13.15;;;;;;;;;;1783301;80;21001;-70
2022/08/28 13:08:31;;;;;;;20.80;11.60;;;;;;;;;;1767071;80;21100;-69
2022/08/28 13:10:57;;;;;;;19.40;12.10;;;;;;;;;;1782930;80;21042;-68
2022/08/28 13:13:29;;;;;;;16.60;8.50;;;;;;;;;;1784024;80;21079;-69
2022/08/28 13:15:56;;;;;;;25.97;14.75;;;;;;;;;;1781379;80;21053;-69
2022/08/28 13:18:42;;;;;;;17.45;10.35;;;;;;;;;;1753330;82;20997;-69
2022/08/28 13:21:15;;;;;;;23.00;14.68;;;;;;;;;;1730322;80;21143;-68
2022/08/28 13:23:41;;;;;;;21.97;13.22;;;;;;;;;;1758018;80;21032;-69
2022/08/28 13:26:07;;;;;;;20.70;11.88;;;;;;;;;;1769957;80;21064;-70
2022/08/28 13:28:37;;;;;;;18.27;11.03;;;;;;;;;;1783363;80;21123;-70
2022/08/28 13:31:03;;;;;;;17.95;11.93;;;;;;;;;;1754664;80;21046;-70
2022/08/28 13:33:30;;;;;;;20.70;11.73;;;;;;;;;;1775602;80;21029;-70
2022/08/28 13:35:56;;;;;;;16.05;10.20;;;;;;;;;;1784007;80;21072;-70
2022/08/28 13:38:23;;;;;;;14.80;9.08;;;;;;;;;;1784582;80;21488;-69
2022/08/28 13:40:52;;;;;;;17.30;8.68;;;;;;;;;;1784406;80;21540;-68
2022/08/28 13:43:20;;;;;;;15.55;8.00;;;;;;;;;;1753472;80;21076;-69
2022/08/28 13:45:47;;;;;;;12.47;7.87;;;;;;;;;;1780366;80;20973;-69
2022/08/28 13:48:14;;;;;;;14.83;8.70;;;;;;;;;;1767145;80;20992;-68
2022/08/28 13:50:41;;;;;;;13.75;7.60;;;;;;;;;;1771544;80;21083;-68
2022/08/28 13:53:08;;;;;;;14.10;8.20;;;;;;;;;;1758844;80;21037;-70
2022/08/28 13:55:33;;;;;;;13.53;8.85;;;;;;;;;;1765518;80;21020;-67
2022/08/28 13:58:00;;;;;;;26.52;11.57;;;;;;;;;;1774940;80;21494;-68
2022/08/28 14:00:27;;;;;;;17.65;11.75;;;;;;;;;;1784671;80;21121;-68
2022/08/28 14:05:38;;;;;;;18.00;8.70;;;;;;;;;;1765116;80;21497;-68
2022/08/28 14:08:03;;;;;;;14.43;7.90;;;;;;;;;;1767015;80;21543;-68
2022/08/28 14:10:30;;;;;;;14.60;8.05;;;;;;;;;;1753018;82;21119;-69
2022/08/28 14:12:57;;;;;;;19.25;10.00;;;;;;;;;;1770233;80;21139;-69
2022/08/28 14:15:23;;;;;;;16.00;9.85;;;;;;;;;;1753394;82;22227;-69
2022/08/28 14:17:49;;;;;;;23.05;14.35;;;;;;;;;;1767299;81;21021;-69
2022/08/28 14:20:16;;;;;;;22.45;15.03;;;;;;;;;;1741934;81;21059;-69
2022/08/28 14:22:43;;;;;;;23.70;16.20;;;;;;;;;;1752975;81;21057;-69
2022/08/28 14:25:09;;;;;;;29.52;18.05;;;;;;;;;;1753964;81;21108;-70
2022/08/28 14:27:36;;;;;;;29.95;18.50;;;;;;;;;;1768087;81;21042;-69
2022/08/28 14:31:11;;;;;;;28.87;19.30;;;;;;;;;;1797460;79;23612;-68
2022/08/28 14:33:38;;;;;;;33.42;20.40;;;;;;;;;;1759099;81;21071;-68
2022/08/28 14:36:04;;;;;;;32.25;20.85;;;;;;;;;;1742920;81;21076;-69
2022/08/28 14:38:31;;;;;;;32.38;20.85;;;;;;;;;;1741054;81;21060;-69
2022/08/28 14:40:57;;;;;;;30.23;19.85;;;;;;;;;;1758945;81;21046;-69
2022/08/28 14:43:23;;;;;;;30.12;18.80;;;;;;;;;;1730044;83;21026;-69
2022/08/28 14:45:49;;;;;;;29.57;19.10;;;;;;;;;;1730317;81;21091;-68
2022/08/28 14:48:16;;;;;;;30.95;20.48;;;;;;;;;;1760971;81;21021;-68
2022/08/28 14:50:44;;;;;;;34.75;21.70;;;;;;;;;;1761369;81;21041;-69
2022/08/28 14:53:12;;;;;;;36.45;23.87;;;;;;;;;;1760218;81;21059;-69